Terminal Aerodrome Forecast
Issued by NWS Upton, NY

Home | Current Version | Previous Version | Text Only | Print | Product List | Glossary On
Versions: 1 2 3 4 5 6 7 8 9 10 11 12 13 14 15 16 17 18 19 20 21 22 23 24 25 26 27 28 29 30 31 32 33 34 35 36 37 38
579
FTUS41 KOKX 261914 AAA
TAFEWR
TAF AMD
KEWR 261914Z 2619/2724 27015G24KT P6SM SCT040 SCT250
     FM262300 28008KT P6SM SCT250
     FM270300 VRB04KT P6SM BKN200
     FM271100 10006KT P6SM SCT035 SCT080 BKN120
     FM271300 09006KT 4SM -SHRA SCT025 BKN060
     FM271600 10010KT 3SM SHRA BKN010
     FM271900 06006KT 2SM -DZ BR BKN008=

USA.gov is the U.S. government's official web portal to all federal, state and local government web resources and services.